createdAt,value
2023-03-05T00:01:11.782Z,94636.53
2023-03-05T00:03:38.686Z,94633.97
2023-03-05T00:06:06.018Z,94625.25
2023-03-05T00:08:33.739Z,94624.53
2023-03-05T00:11:03.355Z,94623.34
2023-03-05T00:13:30.776Z,94618.31
2023-03-05T00:15:57.562Z,94625.22
2023-03-05T00:18:24.875Z,94618.31
2023-03-05T00:20:51.683Z,94624.38
2023-03-05T00:23:18.513Z,94625.38
2023-03-05T00:25:46.663Z,94624.13
2023-03-05T00:28:14.146Z,94611.56
2023-03-05T00:30:41.250Z,94608.63
2023-03-05T00:33:08.956Z,94602.19
2023-03-05T00:35:42.864Z,94601.06
2023-03-05T00:38:12.033Z,94605.22
2023-03-05T00:40:41.264Z,94606.66
2023-03-05T00:43:08.808Z,94599.44
2023-03-05T00:45:35.763Z,94596.84
2023-03-05T00:48:03.827Z,94593.72
2023-03-05T00:50:31.620Z,94605.56
2023-03-05T00:52:59.313Z,94596.53
2023-03-05T00:55:26.074Z,94588.59
2023-03-05T00:57:52.882Z,94579.75
2023-03-05T01:00:19.882Z,94580.50
2023-03-05T01:02:46.661Z,94589.41
2023-03-05T01:05:14.727Z,94598.34
2023-03-05T01:07:41.703Z,94577.63
2023-03-05T01:10:09.355Z,94576.53
2023-03-05T01:12:37.303Z,94576.16
2023-03-05T01:15:05.406Z,94575.47
2023-03-05T01:17:32.513Z,94559.72
2023-03-05T01:19:59.233Z,94576.13
2023-03-05T01:22:26.220Z,94578.00
2023-03-05T01:24:52.913Z,94560.59
2023-03-05T01:27:19.983Z,94578.13
2023-03-05T01:29:46.887Z,94566.50
2023-03-05T01:32:13.731Z,94570.16
2023-03-05T01:34:41.983Z,94568.28
2023-03-05T01:37:09.602Z,94558.59
2023-03-05T01:39:36.497Z,94559.41
2023-03-05T01:42:04.299Z,94559.63
2023-03-05T01:44:32.712Z,94562.34
2023-03-05T01:46:59.683Z,94561.88
2023-03-05T01:49:35.304Z,94565.41
2023-03-05T01:52:11.834Z,94564.47
2023-03-05T01:55:03.850Z,94563.63
2023-03-05T01:57:38.456Z,94548.16
2023-03-05T02:00:21.798Z,94555.22
2023-03-05T02:02:51.423Z,94563.03
2023-03-05T02:05:30.800Z,94560.34
2023-03-05T02:08:00.816Z,94564.16
2023-03-05T02:10:30.595Z,94561.06
2023-03-05T02:13:01.006Z,94566.91
2023-03-05T02:15:29.558Z,94560.84
2023-03-05T02:17:56.553Z,94553.03
2023-03-05T02:20:28.628Z,94566.81
2023-03-05T02:22:56.209Z,94552.09
2023-03-05T02:25:28.926Z,94565.00
2023-03-05T02:28:01.949Z,94558.94
2023-03-05T02:30:29.492Z,94561.47
2023-03-05T02:32:56.248Z,94563.06
2023-03-05T02:35:23.388Z,94564.88
2023-03-05T02:37:50.185Z,94561.25
2023-03-05T02:40:17.567Z,94560.34
2023-03-05T02:42:44.722Z,94558.25
2023-03-05T02:45:13.885Z,94551.03
2023-03-05T02:47:41.158Z,94562.78
2023-03-05T02:50:11.341Z,94560.47
2023-03-05T02:52:39.381Z,94557.84
2023-03-05T02:55:11.767Z,94574.53
2023-03-05T02:57:39.931Z,94575.06
2023-03-05T03:00:07.630Z,94561.59
2023-03-05T03:02:35.010Z,94563.13
2023-03-05T03:05:02.317Z,94565.94
2023-03-05T03:07:29.278Z,94566.03
2023-03-05T03:09:55.993Z,94560.56
2023-03-05T03:12:23.239Z,94563.69
2023-03-05T03:14:49.934Z,94563.69
2023-03-05T03:17:18.310Z,94571.56
2023-03-05T03:19:46.180Z,94567.13
2023-03-05T03:22:16.072Z,94569.16
2023-03-05T03:24:43.759Z,94570.50
2023-03-05T03:27:10.681Z,94578.91
2023-03-05T03:29:37.664Z,94572.59
2023-03-05T03:32:04.792Z,94584.69
2023-03-05T03:34:31.797Z,94575.78
2023-03-05T03:36:58.624Z,94576.56
2023-03-05T03:39:25.575Z,94573.66
2023-03-05T03:41:53.605Z,94566.69
2023-03-05T03:44:21.251Z,94564.97
2023-03-05T03:46:50.001Z,94567.34
2023-03-05T03:49:20.133Z,94555.09
2023-03-05T03:51:47.934Z,94584.00
2023-03-05T03:54:16.248Z,94569.00
2023-03-05T03:56:43.696Z,94571.84
2023-03-05T03:59:11.137Z,94580.47
2023-03-05T04:01:38.197Z,94573.13
2023-03-05T04:04:05.579Z,94574.44
2023-03-05T04:06:33.617Z,94571.06
2023-03-05T04:09:00.370Z,94573.06
2023-03-05T04:11:27.070Z,94580.41
2023-03-05T04:13:53.791Z,94583.03
2023-03-05T04:16:23.728Z,94576.97
2023-03-05T04:18:50.576Z,94583.09
2023-03-05T04:21:17.460Z,94576.09
2023-03-05T04:23:44.225Z,94574.13
2023-03-05T04:26:11.338Z,94573.09
2023-03-05T04:28:38.250Z,94577.88
2023-03-05T04:31:05.450Z,94572.56
2023-03-05T04:33:32.382Z,94575.44
2023-03-05T04:35:59.306Z,94567.97
2023-03-05T04:38:26.240Z,94568.25
2023-03-05T04:40:53.024Z,94569.31
2023-03-05T04:43:19.738Z,94567.25
2023-03-05T04:45:46.696Z,94571.31
2023-03-05T04:48:13.709Z,94568.97
2023-03-05T04:50:40.903Z,94566.81
2023-03-05T04:53:07.625Z,94560.94
2023-03-05T04:55:34.428Z,94569.25
2023-03-05T04:58:03.216Z,94563.28
2023-03-05T05:00:30.103Z,94570.44
2023-03-05T05:02:57.334Z,94562.59
2023-03-05T05:05:26.091Z,94559.44
2023-03-05T05:07:58.048Z,94570.97
2023-03-05T05:10:26.237Z,94570.47
2023-03-05T05:12:52.941Z,94564.97
2023-03-05T05:15:20.372Z,94564.13
2023-03-05T05:17:47.541Z,94569.16
2023-03-05T05:20:16.485Z,94578.91
2023-03-05T05:22:43.744Z,94578.94
2023-03-05T05:25:10.729Z,94585.19
2023-03-05T05:27:40.313Z,94575.88
2023-03-05T05:30:07.861Z,94580.31
2023-03-05T05:32:35.350Z,94585.97
2023-03-05T05:35:02.518Z,94589.59
2023-03-05T05:37:30.158Z,94587.00
2023-03-05T05:39:56.828Z,94579.41
2023-03-05T05:42:25.009Z,94583.84
2023-03-05T05:44:51.894Z,94589.72
2023-03-05T05:47:19.050Z,94601.75
2023-03-05T05:49:46.787Z,94590.50
2023-03-05T05:52:14.279Z,94588.88
2023-03-05T05:54:40.957Z,94581.56
2023-03-05T05:57:07.893Z,94593.03
2023-03-05T05:59:35.057Z,94596.59
2023-03-05T06:02:01.849Z,94599.97
2023-03-05T06:04:28.596Z,94603.56
2023-03-05T06:06:55.735Z,94599.63
2023-03-05T06:09:22.591Z,94602.91
2023-03-05T06:11:50.422Z,94611.31
2023-03-05T06:14:17.229Z,94608.28
2023-03-05T06:16:44.218Z,94606.50
2023-03-05T06:19:15.139Z,94601.44
2023-03-05T06:21:43.548Z,94602.38
2023-03-05T06:24:10.849Z,94602.91
2023-03-05T06:26:38.536Z,94610.88
2023-03-05T06:29:05.258Z,94613.50
2023-03-05T06:31:32.247Z,94612.47
2023-03-05T06:34:03.777Z,94611.94
2023-03-05T06:36:31.003Z,94605.13
2023-03-05T06:38:58.488Z,94617.44
2023-03-05T06:41:31.551Z,94605.94
2023-03-05T06:44:02.328Z,94618.22
2023-03-05T06:46:32.506Z,94614.00
2023-03-05T06:49:01.813Z,94625.03
2023-03-05T06:51:34.907Z,94619.00
2023-03-05T06:54:06.855Z,94623.97
2023-03-05T06:56:36.549Z,94625.28
2023-03-05T06:59:03.394Z,94626.63
2023-03-05T07:01:30.252Z,94623.44
2023-03-05T07:04:00.413Z,94622.41
2023-03-05T07:06:27.810Z,94624.50
2023-03-05T07:08:59.040Z,94626.06
2023-03-05T07:11:26.166Z,94618.22
2023-03-05T07:13:53.220Z,94619.25
2023-03-05T07:16:26.190Z,94622.41
2023-03-05T07:18:54.183Z,94621.53
2023-03-05T07:21:23.532Z,94619.66
2023-03-05T07:23:50.666Z,94621.84
2023-03-05T07:26:17.626Z,94626.00
2023-03-05T07:28:44.549Z,94608.09
2023-03-05T07:31:26.991Z,94623.34
2023-03-05T07:33:54.190Z,94616.09
2023-03-05T07:36:23.328Z,94616.75
2023-03-05T07:38:51.187Z,94619.81
2023-03-05T07:41:20.019Z,94610.88
2023-03-05T07:43:49.256Z,94625.03
2023-03-05T07:46:21.394Z,94622.88
2023-03-05T07:48:49.366Z,94626.03
2023-03-05T07:51:19.985Z,94618.22
2023-03-05T07:53:51.158Z,94616.59
2023-03-05T07:56:23.560Z,94625.31
2023-03-05T07:58:50.648Z,94625.31
2023-03-05T08:01:17.680Z,94624.25
2023-03-05T08:03:44.863Z,94612.47
2023-03-05T08:06:12.758Z,94623.94
2023-03-05T08:08:39.828Z,94626.59
2023-03-05T08:11:09.824Z,94628.16
2023-03-05T08:13:37.222Z,94621.56
2023-03-05T08:16:09.735Z,94610.28
2023-03-05T08:18:36.419Z,94622.88
2023-03-05T08:21:03.881Z,94628.16
2023-03-05T08:23:31.197Z,94628.72
2023-03-05T08:25:58.045Z,94626.59
2023-03-05T08:28:24.856Z,94625.06
2023-03-05T08:30:51.865Z,94619.75
2023-03-05T08:33:19.048Z,94616.59
2023-03-05T08:35:45.971Z,94616.13
2023-03-05T08:38:12.778Z,94621.91
2023-03-05T08:40:39.682Z,94612.94
2023-03-05T08:43:07.232Z,94617.69
2023-03-05T08:45:34.161Z,94604.56
2023-03-05T08:48:00.944Z,94608.28
2023-03-05T08:50:27.726Z,94605.66
2023-03-05T08:52:56.927Z,94600.63
2023-03-05T08:55:23.807Z,94591.13
2023-03-05T08:57:50.718Z,94587.56
2023-03-05T09:00:17.975Z,94592.03
2023-03-05T09:02:44.936Z,94590.41
2023-03-05T09:05:11.766Z,94587.50
2023-03-05T09:07:38.632Z,94573.06
2023-03-05T09:10:06.352Z,94576.25
2023-03-05T09:12:33.221Z,94583.09
2023-03-05T09:15:00.043Z,94576.16
2023-03-05T09:17:26.803Z,94562.94
2023-03-05T09:19:53.697Z,94566.53
2023-03-05T09:22:20.436Z,94572.97
2023-03-05T09:24:48.179Z,94567.13
2023-03-05T09:27:14.982Z,94571.53
2023-03-05T09:29:43.161Z,94565.13
2023-03-05T09:32:10.295Z,94559.75
2023-03-05T09:34:37.246Z,94558.31
2023-03-05T09:37:04.441Z,94558.72
2023-03-05T09:39:31.398Z,94556.66
2023-03-05T09:42:28.279Z,94562.88
2023-03-05T09:45:20.004Z,94565.19
2023-03-05T09:48:01.835Z,94551.28
2023-03-05T09:50:42.048Z,94555.56
2023-03-05T09:53:20.807Z,94545.91
2023-03-05T09:55:52.495Z,94544.75
2023-03-05T09:58:22.270Z,94539.38
2023-03-05T10:00:54.797Z,94529.47
2023-03-05T10:03:34.828Z,94530.09
2023-03-05T10:06:24.685Z,94527.81
2023-03-05T10:09:09.837Z,94518.13
2023-03-05T10:11:50.356Z,94518.34
2023-03-05T10:14:29.723Z,94500.06
2023-03-05T10:16:59.163Z,94506.13
2023-03-05T10:19:28.517Z,94500.25
2023-03-05T10:22:21.568Z,94498.00
2023-03-05T10:25:19.642Z,94492.13
2023-03-05T10:27:54.083Z,94490.34
2023-03-05T10:30:46.436Z,94481.91
2023-03-05T10:33:23.493Z,94472.22
2023-03-05T10:35:55.955Z,94468.41
2023-03-05T10:38:28.558Z,94470.06
2023-03-05T10:40:55.911Z,94469.56
2023-03-05T10:43:41.643Z,94462.16
2023-03-05T10:46:32.984Z,94457.81
2023-03-05T10:49:17.277Z,94466.44
2023-03-05T10:52:01.700Z,94469.13
2023-03-05T10:54:31.498Z,94464.75
2023-03-05T10:57:21.310Z,94449.00
2023-03-05T10:59:55.966Z,94439.94
2023-03-05T11:02:23.915Z,94440.66
2023-03-05T11:04:52.170Z,94444.53
2023-03-05T11:07:18.947Z,94438.88
2023-03-05T11:10:02.620Z,94432.16
2023-03-05T11:12:38.830Z,94430.84
2023-03-05T11:15:11.618Z,94431.16
2023-03-05T11:17:43.386Z,94424.00
2023-03-05T11:20:30.712Z,94420.06
2023-03-05T11:23:15.857Z,94414.00
2023-03-05T11:25:59.467Z,94405.47
2023-03-05T11:28:38.238Z,94407.50
2023-03-05T11:31:21.136Z,94410.53
2023-03-05T11:33:55.686Z,94410.38
2023-03-05T11:36:26.926Z,94410.38
2023-03-05T11:38:59.677Z,94399.91
2023-03-05T11:41:54.098Z,94392.41
2023-03-05T11:44:34.277Z,94386.84
2023-03-05T11:47:28.574Z,94383.09
2023-03-05T11:50:19.145Z,94372.88
2023-03-05T11:52:48.389Z,94371.69
2023-03-05T11:55:18.987Z,94383.94
2023-03-05T11:57:51.741Z,94361.84
2023-03-05T12:00:24.831Z,94364.84
2023-03-05T12:02:54.598Z,94350.50
2023-03-05T12:05:21.520Z,94347.09
2023-03-05T12:07:55.278Z,94342.44
2023-03-05T12:10:25.665Z,94341.19
2023-03-05T12:13:11.111Z,94347.28
2023-03-05T12:16:00.305Z,94337.56
2023-03-05T12:18:51.214Z,94337.78
2023-03-05T12:21:33.226Z,94333.56
2023-03-05T12:24:02.365Z,94319.72
2023-03-05T12:26:53.631Z,94320.66
2023-03-05T12:29:43.659Z,94328.56
2023-03-05T12:32:22.850Z,94316.97
2023-03-05T12:35:24.871Z,94313.81
2023-03-05T12:37:51.858Z,94307.66
2023-03-05T12:40:25.780Z,94292.78
2023-03-05T12:43:33.947Z,94298.13
2023-03-05T12:46:31.643Z,94304.53
2023-03-05T12:48:59.503Z,94302.34
2023-03-05T12:51:33.971Z,94304.09
2023-03-05T12:54:36.624Z,94298.88
2023-03-05T12:57:17.370Z,94294.44
2023-03-05T12:59:50.404Z,94289.78
2023-03-05T13:02:58.895Z,94275.13
2023-03-05T13:05:29.979Z,94294.91
2023-03-05T13:08:35.391Z,94295.78
2023-03-05T13:11:08.473Z,94288.03
2023-03-05T13:13:41.578Z,94290.63
2023-03-05T13:16:25.187Z,94278.97
2023-03-05T13:18:54.956Z,94306.03
2023-03-05T13:21:26.890Z,94287.47
2023-03-05T13:23:59.193Z,94291.91
2023-03-05T13:26:35.989Z,94290.34
2023-03-05T13:29:17.636Z,94293.00
2023-03-05T13:31:48.429Z,94291.31
2023-03-05T13:34:37.420Z,94295.91
2023-03-05T13:37:21.293Z,94299.66
2023-03-05T13:39:52.740Z,94260.03
2023-03-05T13:42:24.692Z,94271.78
2023-03-05T13:45:00.073Z,94277.50
2023-03-05T13:47:32.366Z,94286.13
2023-03-05T13:50:02.112Z,94294.69
2023-03-05T13:52:32.111Z,94281.09
2023-03-05T13:55:00.443Z,94296.44
2023-03-05T13:57:41.256Z,94295.16
2023-03-05T14:00:26.186Z,94286.53
2023-03-05T14:02:55.214Z,94284.69
2023-03-05T14:05:22.354Z,94274.03
2023-03-05T14:07:51.258Z,94285.06
2023-03-05T14:10:47.869Z,94274.66
2023-03-05T14:13:20.975Z,94256.66
2023-03-05T14:16:25.819Z,94280.78
2023-03-05T14:18:55.308Z,94278.97
2023-03-05T14:21:22.339Z,94286.50
2023-03-05T14:23:53.070Z,94275.94
2023-03-05T14:26:31.578Z,94289.66
2023-03-05T14:29:04.114Z,94288.31
2023-03-05T14:31:36.624Z,94279.16
2023-03-05T14:34:07.513Z,94286.28
2023-03-05T14:36:36.463Z,94282.31
2023-03-05T14:39:03.414Z,94269.97
2023-03-05T14:41:33.311Z,94278.72
2023-03-05T14:44:01.375Z,94290.97
2023-03-05T14:46:29.079Z,94291.59
2023-03-05T14:48:56.327Z,94293.78
2023-03-05T14:51:25.418Z,94289.28
2023-03-05T14:53:52.161Z,94286.94
2023-03-05T14:56:24.548Z,94286.16
2023-03-05T14:58:51.964Z,94290.66
2023-03-05T15:01:21.202Z,94294.16
2023-03-05T15:03:48.580Z,94269.34
2023-03-05T15:06:26.207Z,94277.53
2023-03-05T15:08:53.626Z,94288.50
2023-03-05T15:11:22.612Z,94285.19
2023-03-05T15:13:50.172Z,94284.44
2023-03-05T15:16:19.317Z,94291.09
2023-03-05T15:18:46.439Z,94285.13
2023-03-05T15:21:13.420Z,94289.25
2023-03-05T15:23:44.654Z,94279.09
2023-03-05T15:26:14.767Z,94279.91
2023-03-05T15:28:42.955Z,94290.00
2023-03-05T15:31:10.420Z,94282.25
2023-03-05T15:33:37.640Z,94288.06
2023-03-05T15:36:04.791Z,94285.78
2023-03-05T15:38:32.769Z,94285.28
2023-03-05T15:41:01.713Z,94291.16
2023-03-05T15:43:30.539Z,94290.22
2023-03-05T15:45:57.428Z,94289.69
2023-03-05T15:48:24.287Z,94295.28
2023-03-05T15:50:51.982Z,94307.66
2023-03-05T15:53:20.180Z,94309.34
2023-03-05T15:55:46.965Z,94317.53
2023-03-05T15:58:16.916Z,94310.22
2023-03-05T16:00:44.625Z,94317.69
2023-03-05T16:03:11.642Z,94321.63
2023-03-05T16:05:38.874Z,94320.06
2023-03-05T16:08:06.651Z,94320.69
2023-03-05T16:10:33.775Z,94335.28
2023-03-05T16:13:10.114Z,94323.03
2023-03-05T16:15:39.360Z,94318.75
2023-03-05T16:18:10.012Z,94325.94
2023-03-05T16:20:36.842Z,94318.75
2023-03-05T16:23:04.870Z,94315.72
2023-03-05T16:25:31.801Z,94319.34
2023-03-05T16:27:58.523Z,94324.38
2023-03-05T16:30:25.302Z,94318.56
2023-03-05T16:32:53.727Z,94324.13
2023-03-05T16:35:21.229Z,94318.19
2023-03-05T16:37:48.041Z,94327.16
2023-03-05T16:40:14.954Z,94322.16
2023-03-05T16:42:42.110Z,94325.19
2023-03-05T16:45:10.385Z,94340.41
2023-03-05T16:47:38.415Z,94343.41
2023-03-05T16:50:06.501Z,94337.22
2023-03-05T16:52:33.243Z,94346.31
2023-03-05T16:55:00.341Z,94350.13
2023-03-05T16:57:28.878Z,94347.41
2023-03-05T16:59:56.400Z,94355.84
2023-03-05T17:02:23.609Z,94354.13
2023-03-05T17:04:50.719Z,94359.09
2023-03-05T17:07:17.985Z,94366.19
2023-03-05T17:09:44.748Z,94371.59
2023-03-05T17:12:11.564Z,94374.25
2023-03-05T17:14:38.661Z,94386.59
2023-03-05T17:17:05.413Z,94386.78
2023-03-05T17:19:32.078Z,94390.66
2023-03-05T17:21:58.968Z,94385.88
2023-03-05T17:24:26.118Z,94391.13
2023-03-05T17:26:52.804Z,94380.91
2023-03-05T17:29:20.038Z,94389.53
2023-03-05T17:31:50.558Z,94392.69
2023-03-05T17:34:18.386Z,94398.50
2023-03-05T17:36:50.465Z,94406.19
2023-03-05T17:39:19.121Z,94399.47
2023-03-05T17:41:49.475Z,94400.81
2023-03-05T17:44:16.277Z,94387.97
2023-03-05T17:46:43.162Z,94398.84
2023-03-05T17:49:11.880Z,94411.06
2023-03-05T17:51:38.586Z,94409.41
2023-03-05T17:54:05.895Z,94414.41
2023-03-05T17:56:32.939Z,94418.53
2023-03-05T17:59:00.385Z,94421.13
2023-03-05T18:01:30.788Z,94427.75
2023-03-05T18:03:58.297Z,94424.22
2023-03-05T18:06:26.506Z,94419.94
2023-03-05T18:08:53.303Z,94427.38
2023-03-05T18:11:20.259Z,94406.00
2023-03-05T18:13:46.924Z,94434.28
2023-03-05T18:16:17.780Z,94432.78
2023-03-05T18:18:45.202Z,94411.03
2023-03-05T18:21:12.160Z,94439.56
2023-03-05T18:23:38.932Z,94423.38
2023-03-05T18:26:05.725Z,94426.53
2023-03-05T18:28:32.507Z,94430.16
2023-03-05T18:31:01.589Z,94442.72
2023-03-05T18:33:28.286Z,94439.59
2023-03-05T18:35:55.233Z,94438.56
2023-03-05T18:38:24.427Z,94441.72
2023-03-05T18:40:52.734Z,94445.91
2023-03-05T18:43:21.813Z,94431.25
2023-03-05T18:45:50.627Z,94441.69
2023-03-05T18:48:17.663Z,94445.34
2023-03-05T18:50:44.663Z,94452.13
2023-03-05T18:53:13.762Z,94447.38
2023-03-05T18:55:44.905Z,94447.13
2023-03-05T18:58:15.769Z,94460.19
2023-03-05T19:00:44.812Z,94450.84
2023-03-05T19:03:12.319Z,94461.03
2023-03-05T19:05:39.983Z,94454.25
2023-03-05T19:08:07.930Z,94461.56
2023-03-05T19:10:35.432Z,94466.28
2023-03-05T19:13:26.665Z,94466.69
2023-03-05T19:15:57.181Z,94467.31
2023-03-05T19:18:26.418Z,94465.13
2023-03-05T19:20:56.124Z,94467.13
2023-03-05T19:23:22.872Z,94470.41
2023-03-05T19:25:49.639Z,94474.50
2023-03-05T19:28:16.438Z,94464.94
2023-03-05T19:30:43.148Z,94475.41
2023-03-05T19:33:10.205Z,94470.94
2023-03-05T19:35:38.224Z,94467.47
2023-03-05T19:38:04.972Z,94455.19
2023-03-05T19:40:31.809Z,94468.59
2023-03-05T19:42:58.923Z,94473.81
2023-03-05T19:45:25.668Z,94472.00
2023-03-05T19:47:52.360Z,94477.03
2023-03-05T19:50:19.351Z,94473.84
2023-03-05T19:52:46.182Z,94486.63
2023-03-05T19:55:12.941Z,94480.31
2023-03-05T19:57:39.998Z,94485.34
2023-03-05T20:00:07.430Z,94483.53
2023-03-05T20:02:34.101Z,94488.44
2023-03-05T20:05:00.900Z,94480.97
2023-03-05T20:07:28.018Z,94481.88
2023-03-05T20:09:55.604Z,94486.56
2023-03-05T20:12:23.418Z,94490.50
2023-03-05T20:14:50.494Z,94491.59
2023-03-05T20:17:17.378Z,94495.97
2023-03-05T20:19:44.172Z,94498.09
2023-03-05T20:22:11.202Z,94497.13
2023-03-05T20:24:38.235Z,94491.28
2023-03-05T20:27:05.035Z,94500.63
2023-03-05T20:29:31.824Z,94508.88
2023-03-05T20:31:58.754Z,94510.84
2023-03-05T20:34:27.088Z,94488.56
2023-03-05T20:36:54.031Z,94516.09
2023-03-05T20:39:20.787Z,94508.06
2023-03-05T20:41:48.516Z,94515.44
2023-03-05T20:44:16.550Z,94509.66
2023-03-05T20:47:32.825Z,94508.00
2023-03-05T20:50:05.961Z,94503.41
2023-03-05T20:52:32.860Z,94506.66
2023-03-05T20:55:02.459Z,94509.03
2023-03-05T20:57:30.484Z,94504.13
2023-03-05T20:59:57.212Z,94507.88
2023-03-05T21:02:23.966Z,94503.34
2023-03-05T21:04:50.790Z,94505.94
2023-03-05T21:07:17.569Z,94500.22
2023-03-05T21:09:44.524Z,94494.53
2023-03-05T21:12:11.523Z,94501.25
2023-03-05T21:14:39.783Z,94505.63
2023-03-05T21:17:10.053Z,94503.16
2023-03-05T21:19:38.503Z,94491.50
2023-03-05T21:22:05.317Z,94498.03
2023-03-05T21:25:36.266Z,94487.22
2023-03-05T21:28:02.992Z,94491.63
2023-03-05T21:30:35.996Z,94487.59
2023-03-05T21:33:06.231Z,94493.63
2023-03-05T21:35:33.736Z,94489.69
2023-03-05T21:38:02.540Z,94475.56
2023-03-05T21:40:30.217Z,94483.00
2023-03-05T21:42:57.121Z,94492.97
2023-03-05T21:45:26.799Z,94486.28
2023-03-05T21:47:56.253Z,94492.63
2023-03-05T21:50:24.618Z,94492.13
2023-03-05T21:52:52.254Z,94480.06
2023-03-05T21:55:32.294Z,94488.13
2023-03-05T21:58:13.779Z,94491.63
2023-03-05T22:00:40.647Z,94473.06
2023-03-05T22:03:07.380Z,94487.28
2023-03-05T22:05:34.181Z,94478.66
2023-03-05T22:08:01.082Z,94469.06
2023-03-05T22:10:27.893Z,94479.31
2023-03-05T22:13:10.205Z,94493.59
2023-03-05T22:15:47.878Z,94478.66
2023-03-05T22:18:16.792Z,94480.19
2023-03-05T22:20:43.788Z,94481.72
2023-03-05T22:23:11.475Z,94482.66
2023-03-05T22:25:38.432Z,94480.75
2023-03-05T22:28:05.882Z,94472.31
2023-03-05T22:30:33.154Z,94489.03
2023-03-05T22:33:01.890Z,94483.88
2023-03-05T22:35:29.413Z,94475.94
2023-03-05T22:37:56.238Z,94478.19
2023-03-05T22:40:23.206Z,94476.50
2023-03-05T22:42:49.991Z,94491.34
2023-03-05T22:45:18.058Z,94494.41
2023-03-05T22:47:51.469Z,94492.63
2023-03-05T22:50:18.709Z,94492.59
2023-03-05T22:52:45.771Z,94482.81
2023-03-05T22:55:14.678Z,94485.00
2023-03-05T22:57:41.894Z,94487.03
2023-03-05T23:00:16.127Z,94493.31
2023-03-05T23:02:43.977Z,94471.03
2023-03-05T23:05:11.657Z,94492.47
2023-03-05T23:07:41.449Z,94487.81
2023-03-05T23:10:23.867Z,94495.78
2023-03-05T23:12:53.660Z,94488.56
2023-03-05T23:15:22.867Z,94499.66
2023-03-05T23:17:49.724Z,94501.00
2023-03-05T23:20:20.307Z,94503.41
2023-03-05T23:22:48.994Z,94499.38
2023-03-05T23:25:16.505Z,94501.91
2023-03-05T23:27:44.943Z,94501.69
2023-03-05T23:30:21.959Z,94501.66
2023-03-05T23:33:23.925Z,94515.22
2023-03-05T23:35:53.368Z,94508.69
2023-03-05T23:38:20.505Z,94499.09
2023-03-05T23:40:56.328Z,94514.56
2023-03-05T23:43:25.088Z,94522.75
2023-03-05T23:45:55.025Z,94529.50
2023-03-05T23:48:24.006Z,94520.38
2023-03-05T23:50:50.798Z,94523.44
2023-03-05T23:53:24.477Z,94515.41
2023-03-05T23:55:51.728Z,94521.47
2023-03-05T23:58:20.509Z,94511.31
